sensor_id;sensor_type;location;lat;lon;timestamp;P1;durP1;ratioP1;P2;durP2;ratioP2
6739;SDS011;3407;49.882;10.920;2023-02-11T00:03:01;42.03;;;24.30;;
6739;SDS011;3407;49.882;10.920;2023-02-11T00:07:57;58.30;;;25.30;;
6739;SDS011;3407;49.882;10.920;2023-02-11T00:12:52;52.60;;;25.97;;
6739;SDS011;3407;49.882;10.920;2023-02-11T00:17:48;45.93;;;24.57;;
6739;SDS011;3407;49.882;10.920;2023-02-11T00:22:43;47.30;;;26.43;;
6739;SDS011;3407;49.882;10.920;2023-02-11T00:27:39;45.90;;;25.00;;
6739;SDS011;3407;49.882;10.920;2023-02-11T00:32:34;40.20;;;24.47;;
6739;SDS011;3407;49.882;10.920;2023-02-11T00:37:31;51.03;;;27.53;;
6739;SDS011;3407;49.882;10.920;2023-02-11T00:42:30;45.07;;;24.80;;
6739;SDS011;3407;49.882;10.920;2023-02-11T00:47:25;41.20;;;24.53;;
6739;SDS011;3407;49.882;10.920;2023-02-11T00:52:21;44.33;;;24.23;;
6739;SDS011;3407;49.882;10.920;2023-02-11T00:57:16;51.53;;;25.73;;
6739;SDS011;3407;49.882;10.920;2023-02-11T01:02:12;47.93;;;25.27;;
6739;SDS011;3407;49.882;10.920;2023-02-11T01:07:07;42.50;;;24.33;;
6739;SDS011;3407;49.882;10.920;2023-02-11T01:12:03;46.77;;;25.40;;
6739;SDS011;3407;49.882;10.920;2023-02-11T01:16:59;43.00;;;23.47;;
6739;SDS011;3407;49.882;10.920;2023-02-11T01:21:54;43.17;;;25.90;;
6739;SDS011;3407;49.882;10.920;2023-02-11T01:26:50;46.30;;;26.80;;
6739;SDS011;3407;49.882;10.920;2023-02-11T01:31:45;45.57;;;22.63;;
6739;SDS011;3407;49.882;10.920;2023-02-11T01:36:41;46.17;;;22.63;;
6739;SDS011;3407;49.882;10.920;2023-02-11T01:41:37;43.80;;;24.50;;
6739;SDS011;3407;49.882;10.920;2023-02-11T01:46:33;46.03;;;23.63;;
6739;SDS011;3407;49.882;10.920;2023-02-11T01:51:35;47.33;;;22.90;;
6739;SDS011;3407;49.882;10.920;2023-02-11T01:56:36;42.43;;;22.97;;
6739;SDS011;3407;49.882;10.920;2023-02-11T02:02:00;41.77;;;22.93;;
6739;SDS011;3407;49.882;10.920;2023-02-11T02:07:02;40.03;;;22.40;;
6739;SDS011;3407;49.882;10.920;2023-02-11T02:12:04;43.07;;;23.30;;
6739;SDS011;3407;49.882;10.920;2023-02-11T02:16:59;42.97;;;23.67;;
6739;SDS011;3407;49.882;10.920;2023-02-11T02:21:58;46.47;;;23.10;;
6739;SDS011;3407;49.882;10.920;2023-02-11T02:32:38;51.10;;;24.27;;
6739;SDS011;3407;49.882;10.920;2023-02-11T02:43:01;47.53;;;23.23;;
6739;SDS011;3407;49.882;10.920;2023-02-11T02:47:58;40.90;;;21.57;;
6739;SDS011;3407;49.882;10.920;2023-02-11T03:08:41;36.87;;;20.17;;
6739;SDS011;3407;49.882;10.920;2023-02-11T03:13:43;38.17;;;23.17;;
6739;SDS011;3407;49.882;10.920;2023-02-11T03:18:43;42.27;;;21.73;;
6739;SDS011;3407;49.882;10.920;2023-02-11T03:23:46;41.60;;;22.37;;
6739;SDS011;3407;49.882;10.920;2023-02-11T03:34:07;41.20;;;21.67;;
6739;SDS011;3407;49.882;10.920;2023-02-11T03:39:06;41.90;;;21.97;;
6739;SDS011;3407;49.882;10.920;2023-02-11T03:44:03;41.87;;;20.07;;
6739;SDS011;3407;49.882;10.920;2023-02-11T03:49:04;44.03;;;23.37;;
6739;SDS011;3407;49.882;10.920;2023-02-11T03:54:04;42.07;;;21.23;;
6739;SDS011;3407;49.882;10.920;2023-02-11T03:59:06;38.70;;;21.87;;
6739;SDS011;3407;49.882;10.920;2023-02-11T04:04:02;39.57;;;21.37;;
6739;SDS011;3407;49.882;10.920;2023-02-11T04:08:58;38.50;;;21.33;;
6739;SDS011;3407;49.882;10.920;2023-02-11T04:13:53;39.20;;;20.40;;
6739;SDS011;3407;49.882;10.920;2023-02-11T04:18:49;35.77;;;21.53;;
6739;SDS011;3407;49.882;10.920;2023-02-11T04:23:44;42.17;;;20.50;;
6739;SDS011;3407;49.882;10.920;2023-02-11T04:28:40;38.33;;;20.93;;
6739;SDS011;3407;49.882;10.920;2023-02-11T04:33:35;37.60;;;19.43;;
6739;SDS011;3407;49.882;10.920;2023-02-11T04:38:30;39.07;;;22.00;;
6739;SDS011;3407;49.882;10.920;2023-02-11T04:43:26;37.27;;;21.50;;
6739;SDS011;3407;49.882;10.920;2023-02-11T04:48:22;35.37;;;19.27;;
6739;SDS011;3407;49.882;10.920;2023-02-11T04:53:17;42.77;;;22.40;;
6739;SDS011;3407;49.882;10.920;2023-02-11T04:58:13;32.43;;;19.83;;
6739;SDS011;3407;49.882;10.920;2023-02-11T05:03:08;35.27;;;19.47;;
6739;SDS011;3407;49.882;10.920;2023-02-11T05:08:04;35.20;;;20.57;;
6739;SDS011;3407;49.882;10.920;2023-02-11T05:13:00;36.50;;;20.10;;
6739;SDS011;3407;49.882;10.920;2023-02-11T05:17:56;35.53;;;19.13;;
6739;SDS011;3407;49.882;10.920;2023-02-11T05:22:51;42.17;;;20.80;;
6739;SDS011;3407;49.882;10.920;2023-02-11T05:27:47;35.60;;;19.63;;
6739;SDS011;3407;49.882;10.920;2023-02-11T05:32:42;35.43;;;18.53;;
6739;SDS011;3407;49.882;10.920;2023-02-11T05:37:38;36.10;;;19.60;;
6739;SDS011;3407;49.882;10.920;2023-02-11T05:42:33;36.77;;;19.33;;
6739;SDS011;3407;49.882;10.920;2023-02-11T05:47:29;34.97;;;20.23;;
6739;SDS011;3407;49.882;10.920;2023-02-11T05:52:24;32.17;;;18.17;;
6739;SDS011;3407;49.882;10.920;2023-02-11T05:57:20;35.67;;;18.87;;
6739;SDS011;3407;49.882;10.920;2023-02-11T06:02:15;37.47;;;19.20;;
6739;SDS011;3407;49.882;10.920;2023-02-11T06:07:11;35.97;;;19.93;;
6739;SDS011;3407;49.882;10.920;2023-02-11T06:12:06;31.37;;;18.10;;
6739;SDS011;3407;49.882;10.920;2023-02-11T06:17:02;31.17;;;18.33;;
6739;SDS011;3407;49.882;10.920;2023-02-11T06:21:58;33.33;;;18.77;;
6739;SDS011;3407;49.882;10.920;2023-02-11T06:26:53;39.73;;;18.43;;
6739;SDS011;3407;49.882;10.920;2023-02-11T06:31:48;33.33;;;17.23;;
6739;SDS011;3407;49.882;10.920;2023-02-11T06:36:44;32.27;;;18.03;;
6739;SDS011;3407;49.882;10.920;2023-02-11T06:41:40;36.70;;;18.83;;
6739;SDS011;3407;49.882;10.920;2023-02-11T06:46:35;30.80;;;18.30;;
6739;SDS011;3407;49.882;10.920;2023-02-11T06:51:30;29.20;;;18.40;;
6739;SDS011;3407;49.882;10.920;2023-02-11T06:56:26;38.60;;;19.40;;
6739;SDS011;3407;49.882;10.920;2023-02-11T07:01:22;29.33;;;17.63;;
6739;SDS011;3407;49.882;10.920;2023-02-11T07:06:21;36.67;;;17.80;;
6739;SDS011;3407;49.882;10.920;2023-02-11T07:11:27;32.67;;;18.23;;
6739;SDS011;3407;49.882;10.920;2023-02-11T07:16:24;34.10;;;19.07;;
6739;SDS011;3407;49.882;10.920;2023-02-11T07:21:20;36.27;;;19.17;;
6739;SDS011;3407;49.882;10.920;2023-02-11T07:26:19;27.53;;;17.37;;
6739;SDS011;3407;49.882;10.920;2023-02-11T07:31:21;35.90;;;19.47;;
6739;SDS011;3407;49.882;10.920;2023-02-11T07:36:19;31.37;;;18.40;;
6739;SDS011;3407;49.882;10.920;2023-02-11T07:41:16;30.27;;;16.97;;
6739;SDS011;3407;49.882;10.920;2023-02-11T07:46:17;31.73;;;17.43;;
6739;SDS011;3407;49.882;10.920;2023-02-11T07:51:24;30.77;;;18.07;;
6739;SDS011;3407;49.882;10.920;2023-02-11T07:56:24;34.07;;;18.83;;
6739;SDS011;3407;49.882;10.920;2023-02-11T08:01:21;35.03;;;18.93;;
6739;SDS011;3407;49.882;10.920;2023-02-11T08:06:21;36.67;;;19.33;;
6739;SDS011;3407;49.882;10.920;2023-02-11T08:11:19;31.63;;;16.83;;
6739;SDS011;3407;49.882;10.920;2023-02-11T08:16:23;34.87;;;18.73;;
6739;SDS011;3407;49.882;10.920;2023-02-11T08:21:20;30.67;;;18.23;;
6739;SDS011;3407;49.882;10.920;2023-02-11T08:26:18;29.10;;;16.90;;
6739;SDS011;3407;49.882;10.920;2023-02-11T08:31:16;42.87;;;26.27;;
6739;SDS011;3407;49.882;10.920;2023-02-11T08:36:16;33.17;;;18.03;;
6739;SDS011;3407;49.882;10.920;2023-02-11T08:41:13;29.00;;;16.30;;
6739;SDS011;3407;49.882;10.920;2023-02-11T08:46:11;29.63;;;16.63;;
6739;SDS011;3407;49.882;10.920;2023-02-11T08:51:09;31.23;;;16.17;;
6739;SDS011;3407;49.882;10.920;2023-02-11T08:56:09;29.77;;;17.20;;
6739;SDS011;3407;49.882;10.920;2023-02-11T09:01:09;27.00;;;17.30;;
6739;SDS011;3407;49.882;10.920;2023-02-11T09:06:09;29.87;;;17.30;;
6739;SDS011;3407;49.882;10.920;2023-02-11T09:11:06;91.40;;;50.47;;
6739;SDS011;3407;49.882;10.920;2023-02-11T09:16:03;36.03;;;21.30;;
6739;SDS011;3407;49.882;10.920;2023-02-11T09:21:06;34.43;;;20.47;;
6739;SDS011;3407;49.882;10.920;2023-02-11T09:26:07;29.10;;;18.13;;
6739;SDS011;3407;49.882;10.920;2023-02-11T09:31:05;37.53;;;20.53;;
6739;SDS011;3407;49.882;10.920;2023-02-11T09:36:02;28.47;;;17.80;;
6739;SDS011;3407;49.882;10.920;2023-02-11T09:40:59;38.60;;;21.97;;
6739;SDS011;3407;49.882;10.920;2023-02-11T09:45:57;26.97;;;15.70;;
6739;SDS011;3407;49.882;10.920;2023-02-11T09:50:57;25.40;;;14.87;;
6739;SDS011;3407;49.882;10.920;2023-02-11T09:55:56;25.93;;;15.33;;
6739;SDS011;3407;49.882;10.920;2023-02-11T10:06:19;24.90;;;15.43;;
6739;SDS011;3407;49.882;10.920;2023-02-11T10:16:57;28.53;;;14.87;;
6739;SDS011;3407;49.882;10.920;2023-02-11T10:22:14;24.13;;;15.17;;
6739;SDS011;3407;49.882;10.920;2023-02-11T10:27:18;25.33;;;15.90;;
6739;SDS011;3407;49.882;10.920;2023-02-11T10:32:28;26.03;;;15.50;;
6739;SDS011;3407;49.882;10.920;2023-02-11T10:37:39;24.70;;;14.27;;
6739;SDS011;3407;49.882;10.920;2023-02-11T10:42:34;26.03;;;14.47;;
6739;SDS011;3407;49.882;10.920;2023-02-11T10:47:32;29.23;;;16.83;;
6739;SDS011;3407;49.882;10.920;2023-02-11T10:52:31;34.43;;;17.13;;
6739;SDS011;3407;49.882;10.920;2023-02-11T10:57:32;27.40;;;15.30;;
6739;SDS011;3407;49.882;10.920;2023-02-11T11:02:30;24.83;;;15.17;;
6739;SDS011;3407;49.882;10.920;2023-02-11T11:07:30;25.63;;;14.83;;
6739;SDS011;3407;49.882;10.920;2023-02-11T11:17:30;24.60;;;14.70;;
6739;SDS011;3407;49.882;10.920;2023-02-11T11:22:26;23.87;;;15.37;;
6739;SDS011;3407;49.882;10.920;2023-02-11T11:27:22;23.60;;;14.70;;
6739;SDS011;3407;49.882;10.920;2023-02-11T11:32:21;24.33;;;14.73;;
6739;SDS011;3407;49.882;10.920;2023-02-11T11:37:21;23.27;;;15.40;;
6739;SDS011;3407;49.882;10.920;2023-02-11T11:42:24;25.60;;;14.67;;
6739;SDS011;3407;49.882;10.920;2023-02-11T11:47:33;26.43;;;15.50;;
6739;SDS011;3407;49.882;10.920;2023-02-11T11:52:36;24.50;;;15.33;;
6739;SDS011;3407;49.882;10.920;2023-02-11T11:57:38;25.57;;;14.00;;
6739;SDS011;3407;49.882;10.920;2023-02-11T12:02:39;24.13;;;14.17;;
6739;SDS011;3407;49.882;10.920;2023-02-11T12:13:29;26.63;;;14.87;;
6739;SDS011;3407;49.882;10.920;2023-02-11T12:29:47;22.10;;;12.90;;
6739;SDS011;3407;49.882;10.920;2023-02-11T12:35:19;25.53;;;15.00;;
6739;SDS011;3407;49.882;10.920;2023-02-11T12:45:52;49.83;;;24.53;;
6739;SDS011;3407;49.882;10.920;2023-02-11T13:01:36;25.73;;;14.13;;
6739;SDS011;3407;49.882;10.920;2023-02-11T13:06:36;22.93;;;13.73;;
6739;SDS011;3407;49.882;10.920;2023-02-11T13:11:43;28.27;;;15.93;;
6739;SDS011;3407;49.882;10.920;2023-02-11T13:16:46;24.43;;;15.07;;
6739;SDS011;3407;49.882;10.920;2023-02-11T13:27:08;26.43;;;13.70;;
6739;SDS011;3407;49.882;10.920;2023-02-11T13:32:22;24.53;;;14.53;;
6739;SDS011;3407;49.882;10.920;2023-02-11T13:37:20;24.57;;;13.93;;
6739;SDS011;3407;49.882;10.920;2023-02-11T13:42:17;25.23;;;14.70;;
6739;SDS011;3407;49.882;10.920;2023-02-11T13:47:21;22.60;;;13.83;;
6739;SDS011;3407;49.882;10.920;2023-02-11T13:52:34;26.73;;;14.70;;
6739;SDS011;3407;49.882;10.920;2023-02-11T13:57:33;22.53;;;13.90;;
6739;SDS011;3407;49.882;10.920;2023-02-11T14:02:32;22.20;;;14.73;;
6739;SDS011;3407;49.882;10.920;2023-02-11T14:08:06;26.80;;;15.67;;
6739;SDS011;3407;49.882;10.920;2023-02-11T14:13:23;26.73;;;14.40;;
6739;SDS011;3407;49.882;10.920;2023-02-11T14:23:43;24.10;;;14.57;;
6739;SDS011;3407;49.882;10.920;2023-02-11T14:28:39;26.90;;;14.83;;
6739;SDS011;3407;49.882;10.920;2023-02-11T14:33:47;25.43;;;13.73;;
6739;SDS011;3407;49.882;10.920;2023-02-11T14:44:29;26.53;;;15.23;;
6739;SDS011;3407;49.882;10.920;2023-02-11T14:49:34;24.67;;;14.93;;
6739;SDS011;3407;49.882;10.920;2023-02-11T14:54:33;25.77;;;14.30;;
6739;SDS011;3407;49.882;10.920;2023-02-11T14:59:30;24.20;;;14.80;;
6739;SDS011;3407;49.882;10.920;2023-02-11T15:04:26;22.50;;;14.77;;
6739;SDS011;3407;49.882;10.920;2023-02-11T15:09:36;22.03;;;14.20;;
6739;SDS011;3407;49.882;10.920;2023-02-11T15:14:35;24.77;;;15.23;;
6739;SDS011;3407;49.882;10.920;2023-02-11T15:19:34;23.37;;;14.80;;
6739;SDS011;3407;49.882;10.920;2023-02-11T15:24:36;27.40;;;14.73;;
6739;SDS011;3407;49.882;10.920;2023-02-11T15:29:34;26.67;;;15.37;;
6739;SDS011;3407;49.882;10.920;2023-02-11T15:34:32;24.63;;;13.97;;
6739;SDS011;3407;49.882;10.920;2023-02-11T15:44:35;22.83;;;14.27;;
6739;SDS011;3407;49.882;10.920;2023-02-11T15:49:32;22.27;;;13.93;;
6739;SDS011;3407;49.882;10.920;2023-02-11T15:54:27;25.93;;;13.73;;
6739;SDS011;3407;49.882;10.920;2023-02-11T15:59:35;24.73;;;15.03;;
6739;SDS011;3407;49.882;10.920;2023-02-11T16:04:32;26.33;;;14.87;;
6739;SDS011;3407;49.882;10.920;2023-02-11T16:09:32;26.13;;;15.20;;
6739;SDS011;3407;49.882;10.920;2023-02-11T16:14:31;24.00;;;15.67;;
6739;SDS011;3407;49.882;10.920;2023-02-11T16:19:29;22.23;;;14.17;;
6739;SDS011;3407;49.882;10.920;2023-02-11T16:24:27;23.30;;;14.13;;
6739;SDS011;3407;49.882;10.920;2023-02-11T16:29:26;24.87;;;14.73;;
6739;SDS011;3407;49.882;10.920;2023-02-11T16:34:24;25.53;;;14.70;;
6739;SDS011;3407;49.882;10.920;2023-02-11T16:39:20;20.50;;;13.87;;
6739;SDS011;3407;49.882;10.920;2023-02-11T16:44:16;27.07;;;14.40;;
6739;SDS011;3407;49.882;10.920;2023-02-11T16:49:22;22.27;;;14.87;;
6739;SDS011;3407;49.882;10.920;2023-02-11T16:54:23;25.70;;;15.50;;
6739;SDS011;3407;49.882;10.920;2023-02-11T16:59:19;23.60;;;14.53;;
6739;SDS011;3407;49.882;10.920;2023-02-11T17:04:19;26.10;;;15.23;;
6739;SDS011;3407;49.882;10.920;2023-02-11T17:09:18;25.57;;;14.60;;
6739;SDS011;3407;49.882;10.920;2023-02-11T17:14:16;23.30;;;14.27;;
6739;SDS011;3407;49.882;10.920;2023-02-11T17:19:14;23.80;;;15.27;;
6739;SDS011;3407;49.882;10.920;2023-02-11T17:24:11;25.67;;;15.27;;
6739;SDS011;3407;49.882;10.920;2023-02-11T17:29:09;26.20;;;14.80;;
6739;SDS011;3407;49.882;10.920;2023-02-11T17:34:06;25.90;;;15.37;;
6739;SDS011;3407;49.882;10.920;2023-02-11T17:39:02;25.40;;;15.37;;
6739;SDS011;3407;49.882;10.920;2023-02-11T17:43:59;26.37;;;16.03;;
6739;SDS011;3407;49.882;10.920;2023-02-11T17:48:56;30.87;;;17.10;;
6739;SDS011;3407;49.882;10.920;2023-02-11T17:53:52;24.63;;;15.03;;
6739;SDS011;3407;49.882;10.920;2023-02-11T17:58:50;24.27;;;15.67;;
6739;SDS011;3407;49.882;10.920;2023-02-11T18:03:47;23.70;;;15.80;;
6739;SDS011;3407;49.882;10.920;2023-02-11T18:08:42;26.93;;;15.23;;
6739;SDS011;3407;49.882;10.920;2023-02-11T18:13:38;28.33;;;16.37;;
6739;SDS011;3407;49.882;10.920;2023-02-11T18:18:33;29.00;;;16.60;;
6739;SDS011;3407;49.882;10.920;2023-02-11T18:23:29;28.67;;;16.50;;
6739;SDS011;3407;49.882;10.920;2023-02-11T18:28:24;26.93;;;15.53;;
6739;SDS011;3407;49.882;10.920;2023-02-11T18:33:20;29.00;;;16.90;;
6739;SDS011;3407;49.882;10.920;2023-02-11T18:38:16;27.23;;;16.07;;
6739;SDS011;3407;49.882;10.920;2023-02-11T18:43:12;29.10;;;16.37;;
6739;SDS011;3407;49.882;10.920;2023-02-11T18:48:08;22.83;;;13.97;;
6739;SDS011;3407;49.882;10.920;2023-02-11T18:53:04;24.13;;;13.80;;
6739;SDS011;3407;49.882;10.920;2023-02-11T18:58:00;19.53;;;12.40;;
6739;SDS011;3407;49.882;10.920;2023-02-11T19:02:56;17.33;;;11.33;;
6739;SDS011;3407;49.882;10.920;2023-02-11T19:07:52;18.97;;;11.90;;
6739;SDS011;3407;49.882;10.920;2023-02-11T19:12:51;19.43;;;11.83;;
6739;SDS011;3407;49.882;10.920;2023-02-11T19:17:50;21.73;;;13.73;;
6739;SDS011;3407;49.882;10.920;2023-02-11T19:22:45;23.17;;;14.33;;
6739;SDS011;3407;49.882;10.920;2023-02-11T19:27:41;14.80;;;10.87;;
6739;SDS011;3407;49.882;10.920;2023-02-11T19:32:36;14.70;;;9.57;;
6739;SDS011;3407;49.882;10.920;2023-02-11T19:37:32;16.27;;;10.13;;
6739;SDS011;3407;49.882;10.920;2023-02-11T19:42:27;16.37;;;9.97;;
6739;SDS011;3407;49.882;10.920;2023-02-11T19:47:23;14.83;;;9.50;;
6739;SDS011;3407;49.882;10.920;2023-02-11T19:52:21;15.57;;;9.63;;
6739;SDS011;3407;49.882;10.920;2023-02-11T19:57:17;14.67;;;9.23;;
6739;SDS011;3407;49.882;10.920;2023-02-11T20:02:12;16.83;;;11.73;;
6739;SDS011;3407;49.882;10.920;2023-02-11T20:07:08;22.73;;;17.57;;
6739;SDS011;3407;49.882;10.920;2023-02-11T20:12:03;13.43;;;9.00;;
6739;SDS011;3407;49.882;10.920;2023-02-11T20:16:59;12.27;;;8.33;;
6739;SDS011;3407;49.882;10.920;2023-02-11T20:21:55;12.87;;;7.90;;
6739;SDS011;3407;49.882;10.920;2023-02-11T20:26:51;14.23;;;8.43;;
6739;SDS011;3407;49.882;10.920;2023-02-11T20:31:49;10.47;;;7.13;;
6739;SDS011;3407;49.882;10.920;2023-02-11T20:36:45;13.03;;;8.50;;
6739;SDS011;3407;49.882;10.920;2023-02-11T20:41:45;10.43;;;7.90;;
6739;SDS011;3407;49.882;10.920;2023-02-11T20:46:42;16.07;;;9.87;;
6739;SDS011;3407;49.882;10.920;2023-02-11T20:51:41;45.20;;;28.30;;
6739;SDS011;3407;49.882;10.920;2023-02-11T20:56:37;16.07;;;10.10;;
6739;SDS011;3407;49.882;10.920;2023-02-11T21:01:34;17.20;;;10.20;;
6739;SDS011;3407;49.882;10.920;2023-02-11T21:06:35;16.43;;;11.67;;
6739;SDS011;3407;49.882;10.920;2023-02-11T21:11:33;11.57;;;8.53;;
6739;SDS011;3407;49.882;10.920;2023-02-11T21:16:29;11.77;;;8.53;;
6739;SDS011;3407;49.882;10.920;2023-02-11T21:21:25;12.83;;;8.73;;
6739;SDS011;3407;49.882;10.920;2023-02-11T21:26:21;12.17;;;8.63;;
6739;SDS011;3407;49.882;10.920;2023-02-11T21:31:21;11.90;;;8.90;;
6739;SDS011;3407;49.882;10.920;2023-02-11T21:36:22;20.47;;;11.03;;
6739;SDS011;3407;49.882;10.920;2023-02-11T21:41:18;14.23;;;9.27;;
6739;SDS011;3407;49.882;10.920;2023-02-11T21:46:16;12.73;;;8.43;;
6739;SDS011;3407;49.882;10.920;2023-02-11T21:51:13;10.43;;;7.70;;
6739;SDS011;3407;49.882;10.920;2023-02-11T21:56:11;14.77;;;9.33;;
6739;SDS011;3407;49.882;10.920;2023-02-11T22:01:22;11.50;;;7.93;;
6739;SDS011;3407;49.882;10.920;2023-02-11T22:06:24;9.20;;;7.77;;
6739;SDS011;3407;49.882;10.920;2023-02-11T22:11:21;12.57;;;7.70;;
6739;SDS011;3407;49.882;10.920;2023-02-11T22:16:17;9.50;;;7.40;;
6739;SDS011;3407;49.882;10.920;2023-02-11T22:21:14;8.77;;;6.90;;
6739;SDS011;3407;49.882;10.920;2023-02-11T22:26:12;10.23;;;7.00;;
6739;SDS011;3407;49.882;10.920;2023-02-11T22:31:13;10.03;;;7.47;;
6739;SDS011;3407;49.882;10.920;2023-02-11T22:36:20;9.40;;;7.33;;
6739;SDS011;3407;49.882;10.920;2023-02-11T22:41:18;10.90;;;7.33;;
6739;SDS011;3407;49.882;10.920;2023-02-11T22:46:15;10.77;;;8.07;;
6739;SDS011;3407;49.882;10.920;2023-02-11T22:51:13;11.43;;;8.67;;
6739;SDS011;3407;49.882;10.920;2023-02-11T22:56:14;11.80;;;8.63;;
6739;SDS011;3407;49.882;10.920;2023-02-11T23:01:10;13.60;;;8.70;;
6739;SDS011;3407;49.882;10.920;2023-02-11T23:06:06;13.17;;;8.37;;
6739;SDS011;3407;49.882;10.920;2023-02-11T23:11:07;10.87;;;8.83;;
6739;SDS011;3407;49.882;10.920;2023-02-11T23:16:11;11.53;;;8.20;;
6739;SDS011;3407;49.882;10.920;2023-02-11T23:21:14;16.50;;;9.80;;
6739;SDS011;3407;49.882;10.920;2023-02-11T23:26:16;12.27;;;8.37;;
6739;SDS011;3407;49.882;10.920;2023-02-11T23:31:13;10.00;;;7.70;;
6739;SDS011;3407;49.882;10.920;2023-02-11T23:36:12;17.17;;;10.73;;
6739;SDS011;3407;49.882;10.920;2023-02-11T23:41:09;19.10;;;12.60;;
6739;SDS011;3407;49.882;10.920;2023-02-11T23:46:05;17.83;;;9.83;;
6739;SDS011;3407;49.882;10.920;2023-02-11T23:51:01;16.30;;;9.13;;
6739;SDS011;3407;49.882;10.920;2023-02-11T23:55:58;19.00;;;9.43;;
